< < Back
Terminal Aerodrome Forecast


Current Version              Previous Versions:   1  2  3  4  5  6  7  8  9  

Terminal Aerodrome Forecast

797
FTAK31 PAJN 302300
TAFAHN
TAF
PAHN 302326Z 3100/3124 11009G14KT P6SM VCSH OVC015
     FM310900 VRB03KT P6SM FEW010 BKN015 OVC040
     FM311600 10005KT P6SM -SHRA SCT008 OVC015
     FM311900 21013KT 6SM -SHRA BR BKN015 OVC030
      AMD LTD TO CLD VIS AND WIND=



Latest METAR

323
SAUS70 KWBC 310000
MTRAHN
METAR KAHN 302351Z 00000KT 10SM BKN055 29/21 A3010 RMK AO2 SLP184 60000
T02940206 10339 20294 53004


USA.gov is the U.S. government's official web portal to all federal, state and local government web resources and services.